Time;durP1;ratioP1;P1;durP2;ratioP2;P2;SDS_P1;SDS_P2;PMS_P1;PMS_P2;Temp;Humidity;BMP_temperature;BMP_pressure;BME280_temperature;BME280_humidity;BME280_pressure;Samples;Min_cycle;Max_cycle;Signal;HPM_P1;HPM_P2
2023/05/07 00:02:20;;;;;;;;;;;11.60;99.90;;;;;;5073121;28;20259;-70
2023/05/07 00:04:46;;;;;;;;;;;11.50;99.90;;;;;;5067947;28;19929;-68
2023/05/07 00:07:11;;;;;;;;;;;11.50;99.90;;;;;;5069480;28;19925;-69
2023/05/07 00:09:37;;;;;;;;;;;11.40;99.90;;;;;;5074771;28;19932;-69
2023/05/07 00:12:03;;;;;;;;;;;11.30;99.90;;;;;;5072450;28;20319;-68
2023/05/07 00:14:28;;;;;;;;;;;11.40;99.90;;;;;;5072737;28;19931;-70
2023/05/07 00:16:55;;;;;;;;;;;11.50;99.90;;;;;;5072955;28;19928;-70
2023/05/07 00:19:20;;;;;;;;;;;11.40;99.90;;;;;;5071371;28;20285;-70
2023/05/07 00:21:46;;;;;;;;;;;11.40;99.90;;;;;;5071886;28;19924;-70
2023/05/07 00:24:12;;;;;;;;;;;11.30;99.90;;;;;;5070909;28;20313;-69
2023/05/07 00:26:37;;;;;;;;;;;11.30;99.90;;;;;;5071458;28;19931;-69
2023/05/07 00:29:03;;;;;;;;;;;11.30;99.90;;;;;;5072960;28;20393;-68
2023/05/07 00:31:28;;;;;;;;;;;11.20;99.90;;;;;;5071929;28;19924;-68
2023/05/07 00:33:54;;;;;;;;;;;11.20;99.90;;;;;;5070638;28;19924;-69
2023/05/07 00:36:19;;;;;;;;;;;11.20;99.90;;;;;;5070256;28;19931;-69
2023/05/07 00:38:45;;;;;;;;;;;11.20;99.90;;;;;;5072682;28;19928;-69
2023/05/07 00:41:10;;;;;;;;;;;11.30;99.90;;;;;;5071745;28;19924;-70
2023/05/07 00:43:36;;;;;;;;;;;11.20;99.90;;;;;;5066595;28;19924;-69
2023/05/07 00:46:01;;;;;;;;;;;11.20;99.90;;;;;;5071860;28;19935;-69
2023/05/07 00:48:27;;;;;;;;;;;11.20;99.90;;;;;;5071718;28;19931;-70
2023/05/07 00:50:53;;;;;;;;;;;11.10;99.90;;;;;;5072033;28;20003;-68
2023/05/07 00:53:18;;;;;;;;;;;11.10;99.90;;;;;;5072386;28;19924;-70
2023/05/07 00:55:44;;;;;;;;;;;11.10;99.90;;;;;;5072073;28;19993;-69
2023/05/07 00:58:09;;;;;;;;;;;11.10;99.90;;;;;;5071337;28;19959;-69
2023/05/07 01:00:35;;;;;;;;;;;11.10;99.90;;;;;;5071948;28;20273;-69
2023/05/07 01:03:01;;;;;;;;;;;11.10;99.90;;;;;;5070194;28;19977;-69
2023/05/07 01:05:27;;;;;;;;;;;11.10;99.90;;;;;;5070851;28;19925;-70
2023/05/07 01:07:54;;;;;;;;;;;11.10;99.90;;;;;;5069292;28;20062;-69
2023/05/07 01:10:20;;;;;;;;;;;11.10;99.90;;;;;;5055950;28;19925;-69
2023/05/07 01:12:46;;;;;;;;;;;11.10;99.90;;;;;;5067595;28;19932;-70
2023/05/07 01:15:12;;;;;;;;;;;11.10;99.90;;;;;;5064417;28;19932;-69
2023/05/07 01:17:39;;;;;;;;;;;11.00;99.90;;;;;;5057590;28;19928;-69
2023/05/07 01:20:05;;;;;;;;;;;11.10;99.90;;;;;;5065107;28;20382;-70
2023/05/07 01:22:32;;;;;;;;;;;11.10;99.90;;;;;;5072029;28;20282;-70
2023/05/07 01:24:59;;;;;;;;;;;11.10;99.90;;;;;;5071850;28;19925;-69
2023/05/07 01:27:25;;;;;;;;;;;11.10;99.90;;;;;;5065225;28;19932;-69
2023/05/07 01:29:50;;;;;;;;;;;11.00;99.90;;;;;;5072451;28;19929;-68
2023/05/07 01:32:18;;;;;;;;;;;11.10;99.90;;;;;;5054024;28;19971;-69
2023/05/07 01:34:45;;;;;;;;;;;11.00;99.90;;;;;;5054688;28;19936;-68
2023/05/07 01:37:11;;;;;;;;;;;11.00;99.90;;;;;;5072555;28;19925;-69
2023/05/07 01:39:39;;;;;;;;;;;11.00;99.90;;;;;;5068469;28;20340;-69
2023/05/07 01:42:04;;;;;;;;;;;11.00;99.90;;;;;;5047254;28;19977;-69
2023/05/07 01:44:30;;;;;;;;;;;11.00;99.90;;;;;;5070327;28;20293;-69
2023/05/07 01:46:56;;;;;;;;;;;11.00;99.90;;;;;;5070631;28;20503;-69
2023/05/07 01:49:22;;;;;;;;;;;11.00;99.90;;;;;;5071686;28;19960;-69
2023/05/07 01:51:47;;;;;;;;;;;11.00;99.90;;;;;;5071245;28;19991;-69
2023/05/07 01:54:14;;;;;;;;;;;10.90;99.90;;;;;;5071291;28;20386;-69
2023/05/07 01:56:40;;;;;;;;;;;10.90;99.90;;;;;;5070209;28;19935;-69
2023/05/07 01:59:05;;;;;;;;;;;10.90;99.90;;;;;;5069612;28;19924;-69
2023/05/07 02:01:31;;;;;;;;;;;10.90;99.90;;;;;;5047731;28;19932;-69
2023/05/07 02:03:56;;;;;;;;;;;10.90;99.90;;;;;;5071166;28;20011;-69
2023/05/07 02:06:22;;;;;;;;;;;10.90;99.90;;;;;;5070838;28;19928;-70
2023/05/07 02:08:47;;;;;;;;;;;10.90;99.90;;;;;;5070405;28;19978;-69
2023/05/07 02:11:13;;;;;;;;;;;10.90;99.90;;;;;;5070229;28;19928;-69
2023/05/07 02:13:38;;;;;;;;;;;10.90;99.90;;;;;;5074428;28;20324;-69
2023/05/07 02:16:04;;;;;;;;;;;10.90;99.90;;;;;;5072797;28;20023;-69
2023/05/07 02:18:30;;;;;;;;;;;10.90;99.90;;;;;;5067411;28;19972;-69
2023/05/07 02:20:55;;;;;;;;;;;10.90;99.90;;;;;;5075042;28;19924;-70
2023/05/07 02:23:21;;;;;;;;;;;10.80;99.90;;;;;;5074961;28;19950;-69
2023/05/07 02:25:47;;;;;;;;;;;10.80;99.90;;;;;;5071563;28;19986;-69
2023/05/07 02:28:12;;;;;;;;;;;10.80;99.90;;;;;;5072447;28;20022;-70
2023/05/07 02:30:38;;;;;;;;;;;10.80;99.90;;;;;;5065924;28;19975;-69
2023/05/07 02:33:04;;;;;;;;;;;10.80;99.90;;;;;;5075734;28;19970;-69
2023/05/07 02:35:29;;;;;;;;;;;10.70;99.90;;;;;;5067937;28;19978;-69
2023/05/07 02:37:55;;;;;;;;;;;10.80;99.90;;;;;;5073973;28;19970;-69
2023/05/07 02:40:20;;;;;;;;;;;10.80;99.90;;;;;;5072726;28;19925;-69
2023/05/07 02:42:46;;;;;;;;;;;10.80;99.90;;;;;;5074077;28;20377;-69
2023/05/07 02:45:11;;;;;;;;;;;11.00;99.90;;;;;;5070747;28;19924;-69
2023/05/07 02:47:37;;;;;;;;;;;10.80;99.90;;;;;;5069762;28;19932;-69
2023/05/07 02:50:03;;;;;;;;;;;10.80;99.90;;;;;;5069510;28;19932;-69
2023/05/07 02:52:29;;;;;;;;;;;10.80;99.90;;;;;;5068739;28;19929;-69
2023/05/07 02:54:54;;;;;;;;;;;10.80;99.90;;;;;;5074180;28;19950;-69
2023/05/07 02:57:20;;;;;;;;;;;10.80;99.90;;;;;;5053185;28;19924;-69
2023/05/07 02:59:45;;;;;;;;;;;10.80;99.90;;;;;;5071569;28;19931;-69
2023/05/07 03:02:11;;;;;;;;;;;10.80;99.90;;;;;;5071209;28;19925;-69
2023/05/07 03:04:37;;;;;;;;;;;10.80;99.90;;;;;;5066270;28;19926;-69
2023/05/07 03:07:02;;;;;;;;;;;10.80;99.90;;;;;;5070446;28;19963;-70
2023/05/07 03:09:27;;;;;;;;;;;10.80;99.90;;;;;;5072994;28;19941;-69
2023/05/07 03:11:53;;;;;;;;;;;10.60;99.90;;;;;;5068862;28;19924;-70
2023/05/07 03:14:19;;;;;;;;;;;10.70;99.90;;;;;;5074183;28;20401;-69
2023/05/07 03:16:44;;;;;;;;;;;10.80;99.90;;;;;;5070147;28;19924;-69
2023/05/07 03:19:10;;;;;;;;;;;10.70;99.90;;;;;;5073727;28;20290;-69
2023/05/07 03:21:35;;;;;;;;;;;11.70;99.90;;;;;;5072173;28;19924;-70
2023/05/07 03:24:00;;;;;;;;;;;10.70;99.90;;;;;;5073383;28;19925;-68
2023/05/07 03:26:26;;;;;;;;;;;10.60;99.90;;;;;;5072649;28;20012;-69
2023/05/07 03:28:52;;;;;;;;;;;10.70;99.90;;;;;;5068795;28;20019;-69
2023/05/07 03:31:17;;;;;;;;;;;10.60;99.90;;;;;;5074448;28;19959;-69
2023/05/07 03:33:50;;;;;;;;;;;10.60;99.90;;;;;;5072560;28;19925;-69
2023/05/07 03:36:15;;;;;;;;;;;10.60;99.90;;;;;;5064297;28;19924;-69
2023/05/07 03:38:41;;;;;;;;;;;10.60;99.90;;;;;;5069424;28;20389;-69
2023/05/07 03:41:06;;;;;;;;;;;10.60;99.90;;;;;;5064482;28;19972;-69
2023/05/07 03:43:32;;;;;;;;;;;10.60;99.90;;;;;;5074091;28;19929;-69
2023/05/07 03:45:57;;;;;;;;;;;10.60;99.90;;;;;;5066187;28;20015;-69
2023/05/07 03:48:23;;;;;;;;;;;10.50;99.90;;;;;;5074607;28;20058;-70
2023/05/07 03:50:48;;;;;;;;;;;10.50;99.90;;;;;;5071405;28;19924;-69
2023/05/07 03:53:14;;;;;;;;;;;10.50;99.90;;;;;;5067947;28;20046;-68
2023/05/07 03:55:39;;;;;;;;;;;10.50;99.90;;;;;;5071412;28;20011;-69
2023/05/07 03:58:05;;;;;;;;;;;10.40;99.90;;;;;;5070760;28;20375;-68
2023/05/07 04:00:33;;;;;;;;;;;10.50;99.90;;;;;;5054392;28;20381;-70
2023/05/07 04:03:01;;;;;;;;;;;10.50;99.90;;;;;;5072409;28;19925;-70
2023/05/07 04:05:27;;;;;;;;;;;10.40;99.90;;;;;;5072204;28;20021;-70
2023/05/07 04:07:52;;;;;;;;;;;10.40;99.90;;;;;;5070722;28;20394;-70
2023/05/07 04:10:18;;;;;;;;;;;10.40;99.90;;;;;;5051838;28;19925;-69
2023/05/07 04:12:43;;;;;;;;;;;10.40;99.90;;;;;;5052157;28;19925;-70
2023/05/07 04:15:09;;;;;;;;;;;10.40;99.90;;;;;;5067080;28;19933;-69
2023/05/07 04:17:35;;;;;;;;;;;10.40;99.90;;;;;;5069573;28;19924;-69
2023/05/07 04:20:00;;;;;;;;;;;10.40;99.90;;;;;;5073058;28;19924;-69
2023/05/07 04:22:26;;;;;;;;;;;10.40;99.90;;;;;;5072864;28;19931;-69
2023/05/07 04:24:51;;;;;;;;;;;10.40;99.90;;;;;;5069853;28;19932;-68
2023/05/07 04:27:17;;;;;;;;;;;10.30;99.90;;;;;;5071845;28;20007;-69
2023/05/07 04:29:46;;;;;;;;;;;10.40;99.90;;;;;;5067890;28;20023;-69
2023/05/07 04:32:13;;;;;;;;;;;10.30;99.90;;;;;;5069333;28;19927;-69
2023/05/07 04:34:38;;;;;;;;;;;10.40;99.90;;;;;;5068975;28;19924;-69
2023/05/07 04:37:04;;;;;;;;;;;10.30;99.90;;;;;;5071234;28;19948;-70
2023/05/07 04:39:29;;;;;;;;;;;10.30;99.90;;;;;;5071806;28;20362;-69
2023/05/07 04:41:55;;;;;;;;;;;10.30;99.90;;;;;;5072051;28;20393;-69
2023/05/07 04:44:24;;;;;;;;;;;10.30;99.90;;;;;;5072410;28;19975;-68
2023/05/07 04:46:50;;;;;;;;;;;10.30;99.90;;;;;;5067997;28;19971;-69
2023/05/07 04:49:15;;;;;;;;;;;10.30;99.90;;;;;;5069358;28;19975;-68
2023/05/07 04:51:42;;;;;;;;;;;10.30;99.90;;;;;;5068629;28;20372;-68
2023/05/07 04:54:08;;;;;;;;;;;10.30;99.90;;;;;;5069045;28;20389;-68
2023/05/07 04:56:33;;;;;;;;;;;10.30;99.90;;;;;;5070391;28;19924;-68
2023/05/07 04:58:59;;;;;;;;;;;10.30;99.90;;;;;;5052057;28;19928;-68
2023/05/07 05:01:25;;;;;;;;;;;10.30;99.90;;;;;;5070693;28;19932;-68
2023/05/07 05:03:50;;;;;;;;;;;10.30;99.90;;;;;;5070358;28;20456;-68
2023/05/07 05:06:16;;;;;;;;;;;10.30;99.90;;;;;;5069119;28;19928;-69
2023/05/07 05:08:41;;;;;;;;;;;10.30;99.90;;;;;;5071228;28;19924;-68
2023/05/07 05:11:07;;;;;;;;;;;10.30;99.90;;;;;;5070320;28;20370;-68
2023/05/07 05:13:32;;;;;;;;;;;10.30;99.90;;;;;;5070401;28;19928;-68
2023/05/07 05:15:58;;;;;;;;;;;10.30;99.90;;;;;;5070781;28;20394;-68
2023/05/07 05:18:24;;;;;;;;;;;10.30;99.90;;;;;;5070245;28;19931;-68
2023/05/07 05:20:50;;;;;;;;;;;10.30;99.90;;;;;;5052135;28;19928;-68
2023/05/07 05:23:16;;;;;;;;;;;10.30;99.90;;;;;;5071337;28;19924;-67
2023/05/07 05:25:42;;;;;;;;;;;10.30;99.90;;;;;;5071636;28;20005;-68
2023/05/07 05:28:07;;;;;;;;;;;10.40;99.90;;;;;;5066517;28;19924;-68
2023/05/07 05:30:33;;;;;;;;;;;10.60;99.90;;;;;;5070495;28;19973;-68
2023/05/07 05:32:58;;;;;;;;;;;10.30;99.90;;;;;;5052258;28;19925;-68
2023/05/07 05:35:24;;;;;;;;;;;10.30;99.90;;;;;;5067251;28;19936;-68
2023/05/07 05:37:49;;;;;;;;;;;10.30;99.90;;;;;;5067249;28;20062;-68
2023/05/07 05:40:15;;;;;;;;;;;10.30;99.90;;;;;;5071231;28;19924;-68
2023/05/07 05:42:40;;;;;;;;;;;10.30;99.90;;;;;;5071489;28;20011;-68
2023/05/07 05:45:06;;;;;;;;;;;10.30;99.90;;;;;;5070977;28;20054;-68
2023/05/07 05:47:31;;;;;;;;;;;10.20;99.90;;;;;;5072585;28;20554;-69
2023/05/07 05:49:57;;;;;;;;;;;10.30;99.90;;;;;;5074332;28;19924;-69
2023/05/07 05:52:23;;;;;;;;;;;10.30;99.90;;;;;;5069332;28;19924;-69
2023/05/07 05:54:49;;;;;;;;;;;10.30;99.90;;;;;;5073670;28;19924;-68
2023/05/07 05:57:14;;;;;;;;;;;10.20;99.90;;;;;;5074635;28;19931;-69
2023/05/07 05:59:40;;;;;;;;;;;10.20;99.90;;;;;;5075536;28;20282;-68
2023/05/07 06:02:06;;;;;;;;;;;10.30;99.90;;;;;;5074169;28;19986;-69
2023/05/07 06:04:31;;;;;;;;;;;10.20;99.90;;;;;;5054598;28;19924;-69
2023/05/07 06:06:57;;;;;;;;;;;11.40;99.90;;;;;;5074529;28;19950;-69
2023/05/07 06:09:22;;;;;;;;;;;10.20;99.90;;;;;;5073296;28;19955;-69
2023/05/07 06:11:48;;;;;;;;;;;10.20;99.90;;;;;;5070211;28;19968;-69
2023/05/07 06:14:13;;;;;;;;;;;10.20;99.90;;;;;;5073386;28;20007;-68
2023/05/07 06:16:39;;;;;;;;;;;10.30;99.90;;;;;;5054897;28;20528;-69
2023/05/07 06:19:05;;;;;;;;;;;10.30;99.90;;;;;;5070627;28;19931;-68
2023/05/07 06:21:31;;;;;;;;;;;10.30;99.90;;;;;;5067183;28;19924;-69
2023/05/07 06:23:56;;;;;;;;;;;10.30;99.90;;;;;;5073864;28;20345;-69
2023/05/07 06:26:22;;;;;;;;;;;10.60;99.90;;;;;;5077202;28;19950;-69
2023/05/07 06:28:47;;;;;;;;;;;10.40;99.90;;;;;;5072989;28;19924;-69
2023/05/07 06:31:17;;;;;;;;;;;10.40;99.90;;;;;;5071452;28;19924;-69
2023/05/07 06:33:44;;;;;;;;;;;10.40;99.90;;;;;;5070755;28;19924;-69
2023/05/07 06:36:09;;;;;;;;;;;10.50;99.90;;;;;;5072532;28;20386;-69
2023/05/07 06:38:35;;;;;;;;;;;10.40;99.90;;;;;;5073787;28;19931;-69
2023/05/07 06:41:00;;;;;;;;;;;10.50;99.90;;;;;;5073923;28;20546;-69
2023/05/07 06:43:26;;;;;;;;;;;10.40;99.90;;;;;;5073615;28;19939;-69
2023/05/07 06:45:51;;;;;;;;;;;10.50;99.90;;;;;;5072530;28;19924;-69
2023/05/07 06:48:17;;;;;;;;;;;10.50;99.90;;;;;;5071609;28;19932;-69
2023/05/07 06:50:42;;;;;;;;;;;10.60;99.90;;;;;;5067900;28;20294;-69
2023/05/07 06:53:08;;;;;;;;;;;10.60;99.90;;;;;;5072254;28;19924;-69
2023/05/07 06:55:33;;;;;;;;;;;10.60;99.90;;;;;;5073259;28;20341;-69
2023/05/07 06:58:00;;;;;;;;;;;10.60;99.90;;;;;;5072055;28;19925;-69
2023/05/07 07:00:29;;;;;;;;;;;10.50;99.90;;;;;;5066077;28;19929;-69
2023/05/07 07:02:55;;;;;;;;;;;10.60;99.90;;;;;;5056985;28;19947;-69
2023/05/07 07:05:20;;;;;;;;;;;10.60;99.90;;;;;;5071988;28;19932;-69
2023/05/07 07:07:52;;;;;;;;;;;10.60;99.90;;;;;;5073313;28;19924;-69
2023/05/07 07:10:18;;;;;;;;;;;10.60;99.90;;;;;;5074347;28;19942;-69
2023/05/07 07:12:44;;;;;;;;;;;10.60;99.90;;;;;;5073738;28;20015;-69
2023/05/07 07:15:10;;;;;;;;;;;10.60;99.90;;;;;;5046222;28;20402;-68
2023/05/07 07:17:35;;;;;;;;;;;10.60;99.90;;;;;;5055792;28;19985;-68
2023/05/07 07:20:01;;;;;;;;;;;10.50;99.90;;;;;;5071032;28;19924;-69
2023/05/07 07:22:28;;;;;;;;;;;10.60;99.90;;;;;;5073904;28;20382;-68
2023/05/07 07:24:54;;;;;;;;;;;10.60;99.90;;;;;;5074233;28;19966;-68
2023/05/07 07:27:19;;;;;;;;;;;10.50;99.90;;;;;;5067708;28;19975;-68
2023/05/07 07:29:45;;;;;;;;;;;10.60;99.90;;;;;;5074616;28;19986;-69
2023/05/07 07:32:10;;;;;;;;;;;10.60;99.90;;;;;;5073747;28;19924;-69
2023/05/07 07:34:36;;;;;;;;;;;10.60;99.90;;;;;;5067829;28;20664;-69
2023/05/07 07:37:05;;;;;;;;;;;10.60;99.90;;;;;;5072206;28;20298;-69
2023/05/07 07:39:31;;;;;;;;;;;10.60;99.90;;;;;;5074335;28;19931;-69
2023/05/07 07:41:57;;;;;;;;;;;10.60;99.90;;;;;;5073929;28;19924;-69
2023/05/07 07:44:22;;;;;;;;;;;10.70;99.90;;;;;;5073968;28;20062;-69
2023/05/07 07:46:48;;;;;;;;;;;10.70;99.90;;;;;;5069126;28;20086;-70
2023/05/07 07:49:14;;;;;;;;;;;10.70;99.90;;;;;;5064494;28;19924;-72
2023/05/07 07:51:39;;;;;;;;;;;10.80;99.90;;;;;;5071512;28;19924;-70
2023/05/07 07:54:05;;;;;;;;;;;10.80;99.90;;;;;;5071755;28;20271;-69
2023/05/07 07:56:32;;;;;;;;;;;10.80;99.90;;;;;;5071901;28;19970;-69
2023/05/07 07:58:57;;;;;;;;;;;10.80;99.90;;;;;;5071985;28;19935;-69
2023/05/07 08:01:23;;;;;;;;;;;10.90;99.90;;;;;;5064188;28;19924;-69
2023/05/07 08:03:48;;;;;;;;;;;10.90;99.90;;;;;;5071964;28;19956;-69
2023/05/07 08:06:14;;;;;;;;;;;11.00;99.90;;;;;;5071576;28;19924;-70
2023/05/07 08:08:39;;;;;;;;;;;11.00;99.90;;;;;;5072726;28;19928;-69
2023/05/07 08:11:05;;;;;;;;;;;11.10;99.90;;;;;;5070300;28;20391;-69
2023/05/07 08:13:31;;;;;;;;;;;11.10;99.90;;;;;;5071873;28;19970;-69
2023/05/07 08:15:56;;;;;;;;;;;11.10;99.90;;;;;;5067315;28;19924;-72
2023/05/07 08:18:23;;;;;;;;;;;11.10;99.90;;;;;;5070744;28;19928;-69
2023/05/07 08:20:48;;;;;;;;;;;11.20;99.90;;;;;;5061616;28;20348;-69
2023/05/07 08:23:14;;;;;;;;;;;11.30;99.90;;;;;;5073669;28;19924;-69
2023/05/07 08:25:42;;;;;;;;;;;11.40;99.90;;;;;;5037970;28;20313;-69
2023/05/07 08:28:08;;;;;;;;;;;11.30;99.90;;;;;;5072026;28;20346;-69
2023/05/07 08:30:34;;;;;;;;;;;11.50;99.90;;;;;;5052766;28;19964;-70
2023/05/07 08:32:59;;;;;;;;;;;11.50;99.90;;;;;;5070855;28;20087;-69
2023/05/07 08:35:26;;;;;;;;;;;11.50;99.90;;;;;;5072393;28;20015;-69
2023/05/07 08:37:52;;;;;;;;;;;11.50;99.90;;;;;;5055121;28;20394;-69
2023/05/07 08:40:18;;;;;;;;;;;11.50;99.90;;;;;;5054625;28;19975;-70
2023/05/07 08:42:43;;;;;;;;;;;11.60;99.90;;;;;;5071569;28;20357;-69
2023/05/07 08:45:10;;;;;;;;;;;11.60;99.90;;;;;;5072265;28;19925;-69
2023/05/07 08:47:40;;;;;;;;;;;11.70;99.90;;;;;;5075253;28;19986;-67
2023/05/07 08:50:06;;;;;;;;;;;11.70;99.90;;;;;;5071479;28;20019;-69
2023/05/07 08:52:31;;;;;;;;;;;11.80;99.90;;;;;;5069080;28;20019;-69
2023/05/07 08:54:57;;;;;;;;;;;11.80;99.90;;;;;;5074988;28;19950;-69
2023/05/07 08:57:24;;;;;;;;;;;11.90;99.90;;;;;;5069157;28;19932;-69
2023/05/07 08:59:49;;;;;;;;;;;12.00;99.90;;;;;;5049400;28;19947;-69
2023/05/07 09:02:16;;;;;;;;;;;12.10;99.90;;;;;;5071421;28;20271;-69
2023/05/07 09:04:41;;;;;;;;;;;12.20;99.90;;;;;;5064834;28;19925;-69
2023/05/07 09:07:07;;;;;;;;;;;12.30;99.90;;;;;;5076503;28;19931;-69
2023/05/07 09:09:33;;;;;;;;;;;12.40;99.90;;;;;;5073098;28;19969;-69
2023/05/07 09:11:59;;;;;;;;;;;12.40;99.90;;;;;;5072436;28;19928;-68
2023/05/07 09:14:25;;;;;;;;;;;12.50;99.90;;;;;;5069360;28;20378;-68
2023/05/07 09:16:52;;;;;;;;;;;12.50;99.90;;;;;;5050815;28;19931;-68
2023/05/07 09:19:22;;;;;;;;;;;12.60;99.90;;;;;;5070692;28;19936;-68
2023/05/07 09:21:47;;;;;;;;;;;12.70;99.90;;;;;;5070169;28;19964;-69
2023/05/07 09:24:15;;;;;;;;;;;12.80;99.90;;;;;;5070560;28;19968;-69
2023/05/07 09:26:40;;;;;;;;;;;12.70;99.90;;;;;;5068213;28;20406;-69
2023/05/07 09:29:07;;;;;;;;;;;12.80;99.90;;;;;;5068986;28;19933;-68
2023/05/07 09:31:36;;;;;;;;;;;12.80;99.90;;;;;;5055538;28;20378;-68
2023/05/07 09:34:01;;;;;;;;;;;12.80;99.90;;;;;;5058385;28;19935;-68
2023/05/07 09:36:27;;;;;;;;;;;12.80;99.90;;;;;;5071051;28;19925;-69
2023/05/07 09:38:52;;;;;;;;;;;12.90;99.90;;;;;;5071460;28;19932;-69
2023/05/07 09:41:18;;;;;;;;;;;12.90;99.90;;;;;;5053717;28;19931;-67
2023/05/07 09:43:44;;;;;;;;;;;13.10;99.90;;;;;;5071874;28;19932;-68
2023/05/07 09:46:13;;;;;;;;;;;13.20;99.90;;;;;;5071173;28;19966;-68
2023/05/07 09:48:40;;;;;;;;;;;13.20;99.90;;;;;;5070146;28;19978;-69
2023/05/07 09:51:15;;;;;;;;;;;13.30;99.90;;;;;;5071818;28;19925;-69
2023/05/07 09:53:41;;;;;;;;;;;13.40;99.90;;;;;;5072260;28;19931;-68
2023/05/07 09:56:07;;;;;;;;;;;13.50;99.90;;;;;;5071425;28;19925;-68
2023/05/07 09:58:34;;;;;;;;;;;13.50;99.90;;;;;;5070381;28;20294;-68
2023/05/07 10:01:01;;;;;;;;;;;13.50;99.90;;;;;;5070903;28;19925;-68
2023/05/07 10:03:28;;;;;;;;;;;13.50;99.90;;;;;;5065848;28;19924;-69
2023/05/07 10:05:58;;;;;;;;;;;13.50;99.90;;;;;;5072060;28;20325;-69
2023/05/07 10:08:24;;;;;;;;;;;13.60;99.90;;;;;;5071149;28;19940;-69
2023/05/07 10:10:50;;;;;;;;;;;13.70;99.90;;;;;;5054483;28;19932;-69
2023/05/07 10:13:17;;;;;;;;;;;13.80;99.90;;;;;;5071815;28;19932;-69
2023/05/07 10:15:42;;;;;;;;;;;13.90;99.90;;;;;;5071324;28;19932;-69
2023/05/07 10:18:09;;;;;;;;;;;13.90;99.90;;;;;;5050196;28;20306;-69
2023/05/07 10:20:36;;;;;;;;;;;13.90;99.90;;;;;;5069808;28;20275;-67
2023/05/07 10:23:03;;;;;;;;;;;13.90;99.90;;;;;;5071559;28;19930;-68
2023/05/07 10:25:30;;;;;;;;;;;13.90;99.90;;;;;;5070302;28;19925;-68
2023/05/07 10:27:57;;;;;;;;;;;13.80;99.90;;;;;;5071438;28;19924;-68
2023/05/07 10:30:33;;;;;;;;;;;13.80;99.90;;;;;;5070290;28;20023;-69
2023/05/07 10:33:05;;;;;;;;;;;13.90;99.90;;;;;;5074002;28;20375;-68
2023/05/07 10:35:32;;;;;;;;;;;14.00;99.90;;;;;;5074197;28;19925;-69
2023/05/07 10:37:58;;;;;;;;;;;14.00;99.90;;;;;;5072054;28;20405;-68
2023/05/07 10:40:23;;;;;;;;;;;14.00;99.90;;;;;;5071704;28;19950;-68
2023/05/07 10:42:53;;;;;;;;;;;14.00;99.90;;;;;;5073144;28;19931;-68
2023/05/07 10:45:18;;;;;;;;;;;14.00;99.90;;;;;;5072066;28;19924;-68
2023/05/07 10:48:02;;;;;;;;;;;13.90;99.90;;;;;;5072026;28;19928;-68
2023/05/07 10:50:28;;;;;;;;;;;14.00;99.90;;;;;;5067833;28;19924;-68
2023/05/07 10:53:12;;;;;;;;;;;14.10;99.90;;;;;;5071762;28;19973;-69
2023/05/07 10:55:38;;;;;;;;;;;14.20;99.90;;;;;;5067771;28;19932;-70
2023/05/07 10:58:22;;;;;;;;;;;14.30;99.90;;;;;;5056430;28;19924;-69
2023/05/07 11:00:51;;;;;;;;;;;14.40;99.90;;;;;;5072776;28;19931;-69
2023/05/07 11:03:17;;;;;;;;;;;14.70;99.90;;;;;;5073497;28;19925;-68
2023/05/07 11:05:42;;;;;;;;;;;14.90;99.90;;;;;;5065435;28;20328;-69
2023/05/07 11:08:09;;;;;;;;;;;15.20;99.90;;;;;;5062434;28;19932;-69
2023/05/07 11:10:53;;;;;;;;;;;15.50;99.90;;;;;;5068115;28;19924;-69
2023/05/07 11:13:39;;;;;;;;;;;15.60;99.90;;;;;;5074291;28;20034;-69
2023/05/07 11:16:16;;;;;;;;;;;15.60;99.90;;;;;;5069023;28;20302;-70
2023/05/07 11:18:46;;;;;;;;;;;15.70;99.90;;;;;;5064251;28;20278;-70
2023/05/07 11:21:12;;;;;;;;;;;15.80;99.90;;;;;;5072220;28;20302;-69
2023/05/07 11:23:38;;;;;;;;;;;15.80;99.90;;;;;;5071420;28;20271;-70
2023/05/07 11:26:07;;;;;;;;;;;15.90;99.90;;;;;;5053161;28;19931;-69
2023/05/07 11:28:37;;;;;;;;;;;16.20;99.90;;;;;;5073987;28;19930;-69
2023/05/07 11:31:02;;;;;;;;;;;16.50;99.90;;;;;;5073587;28;19921;-69
2023/05/07 11:33:29;;;;;;;;;;;16.40;99.90;;;;;;5040057;28;19924;-69
2023/05/07 11:35:55;;;;;;;;;;;16.60;99.90;;;;;;5068155;28;19931;-69
2023/05/07 11:38:20;;;;;;;;;;;16.60;99.90;;;;;;5074336;28;19925;-70
2023/05/07 11:40:50;;;;;;;;;;;16.50;99.90;;;;;;5074292;28;19939;-69
2023/05/07 11:43:15;;;;;;;;;;;16.60;99.90;;;;;;5074523;28;19948;-69
2023/05/07 11:45:40;;;;;;;;;;;16.60;99.90;;;;;;5070233;28;19924;-69
2023/05/07 11:48:06;;;;;;;;;;;16.70;99.90;;;;;;5055988;28;19932;-70
2023/05/07 11:50:32;;;;;;;;;;;16.90;99.90;;;;;;5054913;28;19928;-70
2023/05/07 11:52:57;;;;;;;;;;;17.00;99.90;;;;;;5045219;28;19924;-69
2023/05/07 11:55:24;;;;;;;;;;;17.00;99.90;;;;;;5051388;28;20038;-70
2023/05/07 11:57:50;;;;;;;;;;;17.20;99.90;;;;;;5074831;28;20011;-69
2023/05/07 12:00:16;;;;;;;;;;;17.20;99.90;;;;;;5071597;28;20441;-70
2023/05/07 12:02:42;;;;;;;;;;;17.30;99.90;;;;;;5074077;28;19924;-68
2023/05/07 12:05:08;;;;;;;;;;;17.40;99.90;;;;;;5073280;28;20019;-69
2023/05/07 12:07:34;;;;;;;;;;;17.60;99.90;;;;;;5063998;28;20054;-69
2023/05/07 12:10:04;;;;;;;;;;;17.40;99.90;;;;;;5073756;28;19925;-68
2023/05/07 12:12:29;;;;;;;;;;;17.40;99.90;;;;;;5073847;28;19978;-68
2023/05/07 12:14:55;;;;;;;;;;;17.70;99.90;;;;;;5069586;28;19950;-69
2023/05/07 12:17:21;;;;;;;;;;;18.00;99.90;;;;;;5072155;28;19925;-69
2023/05/07 12:19:47;;;;;;;;;;;18.30;99.90;;;;;;5071313;28;19924;-70
2023/05/07 12:22:12;;;;;;;;;;;18.40;99.90;;;;;;5072201;28;19931;-69
2023/05/07 12:24:48;;;;;;;;;;;18.20;99.90;;;;;;5068219;28;20294;-69
2023/05/07 12:27:14;;;;;;;;;;;18.20;99.90;;;;;;5071688;28;20011;-69
2023/05/07 12:29:43;;;;;;;;;;;18.00;99.90;;;;;;5072473;28;20401;-69
2023/05/07 12:32:13;;;;;;;;;;;17.90;99.90;;;;;;5070434;28;20027;-69
2023/05/07 12:34:39;;;;;;;;;;;17.80;99.90;;;;;;5070529;28;20250;-70
2023/05/07 12:37:04;;;;;;;;;;;17.90;99.90;;;;;;5050836;28;20420;-70
2023/05/07 12:39:30;;;;;;;;;;;18.00;99.90;;;;;;5064368;28;19975;-69
2023/05/07 12:41:58;;;;;;;;;;;18.10;99.90;;;;;;5033248;28;19947;-69
2023/05/07 12:44:24;;;;;;;;;;;18.40;99.90;;;;;;5070879;28;19975;-69
2023/05/07 12:46:50;;;;;;;;;;;18.60;99.90;;;;;;5066961;28;20364;-69
2023/05/07 12:49:17;;;;;;;;;;;18.50;99.90;;;;;;5071481;28;19928;-70
2023/05/07 12:51:43;;;;;;;;;;;18.90;99.90;;;;;;5069975;28;19947;-70
2023/05/07 12:54:09;;;;;;;;;;;19.00;99.90;;;;;;5068110;28;20375;-70
2023/05/07 12:56:37;;;;;;;;;;;19.10;99.90;;;;;;5084631;28;19925;-71
2023/05/07 12:59:03;;;;;;;;;;;19.40;99.90;;;;;;5072211;28;19931;-70
2023/05/07 13:01:33;;;;;;;;;;;19.90;99.90;;;;;;5071897;28;19956;-68
2023/05/07 13:04:05;;;;;;;;;;;20.40;99.90;;;;;;5049132;28;20370;-68
2023/05/07 13:06:31;;;;;;;;;;;20.50;99.90;;;;;;5049919;28;20484;-68
2023/05/07 13:08:57;;;;;;;;;;;20.40;99.90;;;;;;5072399;28;19924;-68
2023/05/07 13:11:23;;;;;;;;;;;20.30;99.90;;;;;;5071371;28;19924;-69
2023/05/07 13:13:49;;;;;;;;;;;20.60;99.90;;;;;;5060646;28;19924;-68
2023/05/07 13:16:14;;;;;;;;;;;20.80;99.90;;;;;;5067179;28;20050;-69
2023/05/07 13:18:40;;;;;;;;;;;21.20;99.90;;;;;;5069827;28;20023;-69
2023/05/07 13:21:06;;;;;;;;;;;21.90;99.90;;;;;;5064903;28;19991;-69
2023/05/07 13:23:32;;;;;;;;;;;22.00;99.90;;;;;;5059753;28;19925;-68
2023/05/07 13:25:57;;;;;;;;;;;22.00;99.90;;;;;;5072596;28;20066;-71
2023/05/07 13:28:24;;;;;;;;;;;21.80;99.90;;;;;;5070573;28;19977;-69
2023/05/07 13:30:51;;;;;;;;;;;21.30;99.90;;;;;;5070070;28;19928;-68
2023/05/07 13:33:17;;;;;;;;;;;21.20;99.90;;;;;;5066694;28;20015;-69
2023/05/07 13:35:42;;;;;;;;;;;21.50;99.90;;;;;;5067451;28;20007;-69
2023/05/07 13:38:08;;;;;;;;;;;21.60;99.90;;;;;;5053526;28;19924;-68
2023/05/07 13:40:34;;;;;;;;;;;21.90;99.90;;;;;;5054098;28;19924;-69
2023/05/07 13:43:01;;;;;;;;;;;21.80;99.90;;;;;;5053253;28;19932;-68
2023/05/07 13:45:29;;;;;;;;;;;22.60;99.90;;;;;;5069313;28;19978;-69
2023/05/07 13:47:56;;;;;;;;;;;23.10;99.90;;;;;;5067855;28;19925;-69
2023/05/07 13:50:21;;;;;;;;;;;23.00;99.90;;;;;;5049916;28;19925;-70
2023/05/07 13:52:50;;;;;;;;;;;22.80;99.90;;;;;;5065442;28;19924;-70
2023/05/07 13:55:19;;;;;;;;;;;22.80;99.90;;;;;;5071974;28;20366;-69
2023/05/07 13:57:45;;;;;;;;;;;22.60;99.90;;;;;;5036702;28;19925;-69
2023/05/07 14:00:11;;;;;;;;;;;22.50;99.90;;;;;;5068521;28;19951;-71
2023/05/07 14:02:37;;;;;;;;;;;22.80;99.90;;;;;;5070752;28;20023;-69
2023/05/07 14:05:02;;;;;;;;;;;23.50;99.90;;;;;;5070889;28;19964;-70
2023/05/07 14:07:28;;;;;;;;;;;24.00;99.90;;;;;;5056272;28;19924;-69
2023/05/07 14:09:54;;;;;;;;;;;24.40;99.20;;;;;;5074193;28;19924;-69
2023/05/07 14:12:20;;;;;;;;;;;24.70;99.10;;;;;;5069750;28;20007;-70